Etusivu
METAR-TAF:

METAR-TAF

Lentoasemat :

Kassel, Saksa

Leveyspiiri: 51-24N, Pituuspiiri: 009-23E, korkeus merenpinnasta: 277 m

Tämänhetkinen sää

Tämä raportti tehtiin 21 minuuttia sitten, kello 21.20 UTC
Tuuli 2 kn etelästä
Lämpötila 10°C
Kosteus 100%
Ilmanpaine 1020 hPa
Näkyvyys: 9000 m
Matala sumu

METAR: EDVK 162120Z 19002KT 9000 R27/0800VP2000 MIFG NSC 10/10 Q1020

Aika: 23:41 (21:41 UTC)

Sääennuste

Tämä raportti tehtiin 4 tuntia ja 41 minuuttia sitten, kello 17.00 UTC
Ennuste voimassa 16. päivästä klo 18 UTC - 17. päivään klo 03 UTC
Tuuli 5 kn lännestä/luoteesta
Näkyvyys 10 km tai enemmän
ei pilviä alle 1500 m:ssä eikä cumulonimbus-pilviä

TAF: EDVK 161700Z 1618/1703 30005KT CAVOK

Säähavainnot ja -ennusteet yli 4000 lentoasemalta (METAR- ja TAF-raportit).

Käytössä olevat sääasemat on merkitty karttaan keltaisilla ja punaisilla pisteillä.

Aseta hiiri pisteen päälle nähdäksesi sääaseman nimen.

Klikkaa sitten nähdäksesi säähavainnot ja -ennusteet.

Kartan vaihtaminen: klikkaa mustalla rastilla varustettuja vihreitä pisteitä, niin voit zoomata sisään; viivalla varustettua vihreää pistettä, niin voit zoomata ulos tai vihreitä nuolia, niin pääset viereisille kartoille.


METAR-TAF: